Afton, OK

9:19 PM CDT on April 25, 2017 (GMT -0500)
Cleora, OK - Beverly Heights, Grand Lake, OK | | Change Station
Active Advisory: Severe Thunderstorm Watch

Elev 781 ft 36.58 °N, 94.93 °W | Updated 21 seconds ago

Overcast
Overcast
70.7 °F
Feels Like 73 °F
N
0.0
Wind Variable Wind from East

Today
High -- | Low -- °F
--% Chance of Precip.
Yesterday
High -- | Low -- °F
Precip. -- in
Pressure 29.46 in
Visibility 10.0 miles
Clouds Scattered Clouds 4700 ft
Scattered Clouds 6000 ft
Heat Index 73 °F
Dew Point 63 °F
Humidity 76%
Rainfall 0.00 in
Snow Depth Not available.
6:32 AM 8:03 PM
Waning Crescent, 0% visible
METAR KGMJ 260215Z AUTO 10003KT 10SM SCT047 SCT060 21/17 A2946 RMK AO2 LTG DSNT NW
Pressure 29.46 in
Visibility 10.0 miles
Clouds Scattered Clouds 4700 ft
Scattered Clouds 6000 ft
Heat Index 73 °F
Dew Point 63 °F
Humidity 76%
Rainfall 0.00 in
Snow Depth Not available.
6:32 AM 8:03 PM
Waning Crescent, 0% visible
METAR KGMJ 260215Z AUTO 10003KT 10SM SCT047 SCT060 21/17 A2946 RMK AO2 LTG DSNT NW

Get Your Daily Forecast Email!

Thanks for signing up!

Be on the lookout for a verification email in your inbox.

You'll start receiving severe weather alerts in your inbox..

×

10-Day Weather Forecast

Almanac

Astronomy

Apr. 25, 2017 Rise Set
Actual Time
Civil Twilight
Nautical Twilight
Astronomical Twilight
Moon
Length of Visible Light
Length of Day
Tomorrow will be .
, % of the Moon is Illuminated

Today's Extremes

State Highs State Lows

Community

WunderPhotos

WunderBlog® & News

Nearby

Air Quality

  Air Quality AQ Index Pollutant
Not available.

Snow Depth

Station Depth Elevation

Earthquake Activity

City Distance Mag. Time & Date
Minimum magnitude displayed is 2.5.

Coastal Water Temperatures

Place Temperature

Stations

Nearby Weather Stations

Station Location Temp. Windchill Dew Point Humidity Wind Precip. Elev Updated Type
                   

Watches & Warnings

Severe Thunderstorm Watch
Issued: 9:03 PM CDT Apr. 25, 2017 – National Weather Service

Severe Thunderstorm Watch 159 remains in effect until 200 am CDT

OK
. Oklahoma counties included are

Cherokee Cleveland Craig
creek Delaware Garvin
Grady Hughes Lincoln
Logan McClain McIntosh
Mayes Muskogee Noble
Nowata Okfuskee Oklahoma
Okmulgee Osage Ottawa
Pawnee Payne Pontotoc
Pottawatomie Rogers Seminole
Tulsa Wagoner Washington